Fisher, Illinois
Current Conditions -  °F | °C
As of 8:30 PM on Tuesday 21 Oct 2014 (Local Time) from KTIP Reporting Station
Overcast Overcast  
Wind Chill: 52°   Ceiling: 2800
Heat Index: 52°   Visibility: 10mi
Dew Point: 40°   Wind: 9mph
Humidity: 65%   Direction: 40°NE
Pressure: 30.23"   Gusts: NA
Location:  40.31°N, 88.35°W
Report Text: KTIP 220130Z AUTO 04008KT 10SM OVC028 11/05 A3023 RMK AO2 T01100046
Loading
Personal Weather Stations






























Interactive Weather Map
Tropical Storm Tracking
New forecast layout! Learn more

10-Day Weather Forecast

Advertisements
Track Severe Weather on mobile